sensor_id;sensor_type;location;lat;lon;timestamp;P1;durP1;ratioP1;P2;durP2;ratioP2
16826;SDS011;8530;49.540;8.576;2024-02-04T00:00:09;2.20;;;2.00;;
16826;SDS011;8530;49.540;8.576;2024-02-04T00:02:38;2.27;;;2.07;;
16826;SDS011;8530;49.540;8.576;2024-02-04T00:05:05;2.30;;;2.10;;
16826;SDS011;8530;49.540;8.576;2024-02-04T00:07:32;1.90;;;1.70;;
16826;SDS011;8530;49.540;8.576;2024-02-04T00:09:58;2.03;;;1.93;;
16826;SDS011;8530;49.540;8.576;2024-02-04T00:12:25;2.13;;;1.93;;
16826;SDS011;8530;49.540;8.576;2024-02-04T00:14:52;2.40;;;2.20;;
16826;SDS011;8530;49.540;8.576;2024-02-04T00:17:20;2.40;;;2.20;;
16826;SDS011;8530;49.540;8.576;2024-02-04T00:19:47;2.47;;;2.27;;
16826;SDS011;8530;49.540;8.576;2024-02-04T00:22:14;2.97;;;2.77;;
16826;SDS011;8530;49.540;8.576;2024-02-04T00:24:42;2.53;;;2.33;;
16826;SDS011;8530;49.540;8.576;2024-02-04T00:27:09;2.80;;;2.60;;
16826;SDS011;8530;49.540;8.576;2024-02-04T00:29:35;2.53;;;2.33;;
16826;SDS011;8530;49.540;8.576;2024-02-04T00:32:02;3.40;;;2.83;;
16826;SDS011;8530;49.540;8.576;2024-02-04T00:34:30;2.40;;;2.20;;
16826;SDS011;8530;49.540;8.576;2024-02-04T00:36:57;3.30;;;3.03;;
16826;SDS011;8530;49.540;8.576;2024-02-04T00:39:24;3.00;;;2.70;;
16826;SDS011;8530;49.540;8.576;2024-02-04T00:41:50;2.50;;;2.30;;
16826;SDS011;8530;49.540;8.576;2024-02-04T00:44:17;2.50;;;2.30;;
16826;SDS011;8530;49.540;8.576;2024-02-04T00:46:44;10.70;;;2.70;;
16826;SDS011;8530;49.540;8.576;2024-02-04T00:49:11;3.30;;;3.00;;
16826;SDS011;8530;49.540;8.576;2024-02-04T00:51:39;2.30;;;2.10;;
16826;SDS011;8530;49.540;8.576;2024-02-04T00:54:05;2.87;;;2.53;;
16826;SDS011;8530;49.540;8.576;2024-02-04T00:56:32;6.37;;;3.27;;
16826;SDS011;8530;49.540;8.576;2024-02-04T00:58:59;2.33;;;2.13;;
16826;SDS011;8530;49.540;8.576;2024-02-04T01:01:25;7.77;;;2.13;;
16826;SDS011;8530;49.540;8.576;2024-02-04T01:03:52;6.67;;;2.33;;
16826;SDS011;8530;49.540;8.576;2024-02-04T01:06:19;2.40;;;2.00;;
16826;SDS011;8530;49.540;8.576;2024-02-04T01:08:47;9.80;;;3.00;;
16826;SDS011;8530;49.540;8.576;2024-02-04T01:11:14;2.23;;;2.10;;
16826;SDS011;8530;49.540;8.576;2024-02-04T01:13:40;4.20;;;2.23;;
16826;SDS011;8530;49.540;8.576;2024-02-04T01:16:07;2.47;;;2.27;;
16826;SDS011;8530;49.540;8.576;2024-02-04T01:18:34;2.40;;;2.20;;
16826;SDS011;8530;49.540;8.576;2024-02-04T01:21:00;2.00;;;1.90;;
16826;SDS011;8530;49.540;8.576;2024-02-04T01:23:27;3.10;;;2.10;;
16826;SDS011;8530;49.540;8.576;2024-02-04T01:25:55;2.40;;;2.20;;
16826;SDS011;8530;49.540;8.576;2024-02-04T01:28:22;2.67;;;2.47;;
16826;SDS011;8530;49.540;8.576;2024-02-04T01:30:48;2.70;;;2.50;;
16826;SDS011;8530;49.540;8.576;2024-02-04T01:33:15;2.30;;;2.10;;
16826;SDS011;8530;49.540;8.576;2024-02-04T01:35:42;2.20;;;2.03;;
16826;SDS011;8530;49.540;8.576;2024-02-04T01:38:08;3.50;;;2.33;;
16826;SDS011;8530;49.540;8.576;2024-02-04T01:40:35;2.10;;;1.90;;
16826;SDS011;8530;49.540;8.576;2024-02-04T01:43:03;2.43;;;2.23;;
16826;SDS011;8530;49.540;8.576;2024-02-04T01:45:30;2.40;;;2.20;;
16826;SDS011;8530;49.540;8.576;2024-02-04T01:47:57;3.10;;;2.70;;
16826;SDS011;8530;49.540;8.576;2024-02-04T01:50:25;6.10;;;2.27;;
16826;SDS011;8530;49.540;8.576;2024-02-04T01:52:51;3.40;;;2.80;;
16826;SDS011;8530;49.540;8.576;2024-02-04T01:55:18;2.80;;;2.60;;
16826;SDS011;8530;49.540;8.576;2024-02-04T01:57:46;5.10;;;3.43;;
16826;SDS011;8530;49.540;8.576;2024-02-04T02:00:15;3.97;;;3.47;;
16826;SDS011;8530;49.540;8.576;2024-02-04T02:02:43;3.40;;;2.87;;
16826;SDS011;8530;49.540;8.576;2024-02-04T02:05:12;6.93;;;3.07;;
16826;SDS011;8530;49.540;8.576;2024-02-04T02:07:40;4.73;;;3.87;;
16826;SDS011;8530;49.540;8.576;2024-02-04T02:10:08;3.87;;;3.47;;
16826;SDS011;8530;49.540;8.576;2024-02-04T02:12:35;4.93;;;4.03;;
16826;SDS011;8530;49.540;8.576;2024-02-04T02:15:10;5.70;;;4.27;;
16826;SDS011;8530;49.540;8.576;2024-02-04T02:17:44;4.70;;;3.93;;
16826;SDS011;8530;49.540;8.576;2024-02-04T02:20:17;4.30;;;3.80;;
16826;SDS011;8530;49.540;8.576;2024-02-04T02:22:47;4.27;;;3.60;;
16826;SDS011;8530;49.540;8.576;2024-02-04T02:25:17;4.63;;;3.43;;
16826;SDS011;8530;49.540;8.576;2024-02-04T02:27:47;9.70;;;5.07;;
16826;SDS011;8530;49.540;8.576;2024-02-04T02:30:15;4.00;;;3.70;;
16826;SDS011;8530;49.540;8.576;2024-02-04T02:32:42;4.90;;;3.97;;
16826;SDS011;8530;49.540;8.576;2024-02-04T02:35:10;11.97;;;3.93;;
16826;SDS011;8530;49.540;8.576;2024-02-04T02:37:40;5.73;;;3.57;;
16826;SDS011;8530;49.540;8.576;2024-02-04T02:40:11;4.90;;;4.30;;
16826;SDS011;8530;49.540;8.576;2024-02-04T02:46:22;4.53;;;4.00;;
16826;SDS011;8530;49.540;8.576;2024-02-04T02:48:49;5.67;;;4.63;;
16826;SDS011;8530;49.540;8.576;2024-02-04T02:51:16;4.47;;;3.83;;
16826;SDS011;8530;49.540;8.576;2024-02-04T02:53:43;6.50;;;4.37;;
16826;SDS011;8530;49.540;8.576;2024-02-04T02:56:10;7.57;;;4.50;;
16826;SDS011;8530;49.540;8.576;2024-02-04T02:58:36;5.20;;;4.10;;
16826;SDS011;8530;49.540;8.576;2024-02-04T03:01:03;9.20;;;3.90;;
16826;SDS011;8530;49.540;8.576;2024-02-04T03:03:31;6.40;;;3.70;;
16826;SDS011;8530;49.540;8.576;2024-02-04T03:05:58;3.50;;;3.20;;
16826;SDS011;8530;49.540;8.576;2024-02-04T03:08:25;3.70;;;3.40;;
16826;SDS011;8530;49.540;8.576;2024-02-04T03:10:51;5.17;;;3.00;;
16826;SDS011;8530;49.540;8.576;2024-02-04T03:13:18;4.13;;;3.33;;
16826;SDS011;8530;49.540;8.576;2024-02-04T03:15:45;4.50;;;3.30;;
16826;SDS011;8530;49.540;8.576;2024-02-04T03:18:11;4.80;;;3.53;;
16826;SDS011;8530;49.540;8.576;2024-02-04T03:20:40;5.80;;;3.60;;
16826;SDS011;8530;49.540;8.576;2024-02-04T03:23:06;4.40;;;3.70;;
16826;SDS011;8530;49.540;8.576;2024-02-04T03:25:33;3.53;;;3.23;;
16826;SDS011;8530;49.540;8.576;2024-02-04T03:28:00;5.90;;;5.03;;
16826;SDS011;8530;49.540;8.576;2024-02-04T03:30:26;4.17;;;3.57;;
16826;SDS011;8530;49.540;8.576;2024-02-04T03:32:53;3.47;;;3.17;;
16826;SDS011;8530;49.540;8.576;2024-02-04T03:35:20;4.27;;;3.87;;
16826;SDS011;8530;49.540;8.576;2024-02-04T03:40:43;4.33;;;3.20;;
16826;SDS011;8530;49.540;8.576;2024-02-04T03:43:10;3.97;;;3.40;;
16826;SDS011;8530;49.540;8.576;2024-02-04T03:45:37;4.00;;;3.37;;
16826;SDS011;8530;49.540;8.576;2024-02-04T03:48:04;3.43;;;3.13;;
16826;SDS011;8530;49.540;8.576;2024-02-04T03:50:31;5.30;;;3.60;;
16826;SDS011;8530;49.540;8.576;2024-02-04T03:52:58;4.00;;;3.60;;
16826;SDS011;8530;49.540;8.576;2024-02-04T03:55:26;3.30;;;3.00;;
16826;SDS011;8530;49.540;8.576;2024-02-04T03:57:54;2.63;;;2.43;;
16826;SDS011;8530;49.540;8.576;2024-02-04T04:00:22;4.20;;;3.10;;
16826;SDS011;8530;49.540;8.576;2024-02-04T04:02:48;3.10;;;2.90;;
16826;SDS011;8530;49.540;8.576;2024-02-04T04:05:15;2.80;;;2.50;;
16826;SDS011;8530;49.540;8.576;2024-02-04T04:07:42;3.03;;;2.63;;
16826;SDS011;8530;49.540;8.576;2024-02-04T04:10:08;4.93;;;3.10;;
16826;SDS011;8530;49.540;8.576;2024-02-04T04:12:36;2.93;;;2.73;;
16826;SDS011;8530;49.540;8.576;2024-02-04T04:15:04;2.57;;;2.30;;
16826;SDS011;8530;49.540;8.576;2024-02-04T04:17:31;2.93;;;2.73;;
16826;SDS011;8530;49.540;8.576;2024-02-04T04:19:58;2.37;;;1.90;;
16826;SDS011;8530;49.540;8.576;2024-02-04T04:22:24;1.70;;;1.60;;
16826;SDS011;8530;49.540;8.576;2024-02-04T04:24:51;1.80;;;1.60;;
16826;SDS011;8530;49.540;8.576;2024-02-04T04:27:18;1.67;;;1.57;;
16826;SDS011;8530;49.540;8.576;2024-02-04T04:29:46;1.50;;;1.40;;
16826;SDS011;8530;49.540;8.576;2024-02-04T04:32:12;1.90;;;1.70;;
16826;SDS011;8530;49.540;8.576;2024-02-04T04:34:39;1.43;;;1.33;;
16826;SDS011;8530;49.540;8.576;2024-02-04T04:37:06;1.70;;;1.60;;
16826;SDS011;8530;49.540;8.576;2024-02-04T04:39:33;1.90;;;1.80;;
16826;SDS011;8530;49.540;8.576;2024-02-04T04:41:59;2.17;;;1.97;;
16826;SDS011;8530;49.540;8.576;2024-02-04T04:44:26;1.80;;;1.70;;
16826;SDS011;8530;49.540;8.576;2024-02-04T04:46:54;1.80;;;1.70;;
16826;SDS011;8530;49.540;8.576;2024-02-04T04:49:21;2.07;;;1.87;;
16826;SDS011;8530;49.540;8.576;2024-02-04T04:51:48;1.50;;;1.40;;
16826;SDS011;8530;49.540;8.576;2024-02-04T04:54:14;1.97;;;1.70;;
16826;SDS011;8530;49.540;8.576;2024-02-04T04:56:41;1.60;;;1.50;;
16826;SDS011;8530;49.540;8.576;2024-02-04T04:59:08;1.50;;;1.40;;
16826;SDS011;8530;49.540;8.576;2024-02-04T05:01:35;1.40;;;1.30;;
16826;SDS011;8530;49.540;8.576;2024-02-04T05:04:03;1.63;;;1.53;;
16826;SDS011;8530;49.540;8.576;2024-02-04T05:06:30;1.50;;;1.40;;
16826;SDS011;8530;49.540;8.576;2024-02-04T05:08:56;2.87;;;1.57;;
16826;SDS011;8530;49.540;8.576;2024-02-04T05:11:24;1.47;;;1.37;;
16826;SDS011;8530;49.540;8.576;2024-02-04T05:13:51;2.30;;;1.67;;
16826;SDS011;8530;49.540;8.576;2024-02-04T05:16:17;1.53;;;1.40;;
16826;SDS011;8530;49.540;8.576;2024-02-04T05:18:44;1.50;;;1.40;;
16826;SDS011;8530;49.540;8.576;2024-02-04T05:21:12;1.67;;;1.57;;
16826;SDS011;8530;49.540;8.576;2024-02-04T05:23:39;2.23;;;1.50;;
16826;SDS011;8530;49.540;8.576;2024-02-04T05:26:06;1.60;;;1.50;;
16826;SDS011;8530;49.540;8.576;2024-02-04T05:28:32;1.63;;;1.53;;
16826;SDS011;8530;49.540;8.576;2024-02-04T05:31:00;1.43;;;1.33;;
16826;SDS011;8530;49.540;8.576;2024-02-04T05:33:27;1.53;;;1.30;;
16826;SDS011;8530;49.540;8.576;2024-02-04T05:35:54;1.37;;;1.27;;
16826;SDS011;8530;49.540;8.576;2024-02-04T05:38:22;1.40;;;1.30;;
16826;SDS011;8530;49.540;8.576;2024-02-04T05:40:49;1.40;;;1.30;;
16826;SDS011;8530;49.540;8.576;2024-02-04T05:43:15;3.40;;;1.60;;
16826;SDS011;8530;49.540;8.576;2024-02-04T05:45:42;1.40;;;1.30;;
16826;SDS011;8530;49.540;8.576;2024-02-04T05:48:09;1.40;;;1.30;;
16826;SDS011;8530;49.540;8.576;2024-02-04T05:50:36;1.50;;;1.40;;
16826;SDS011;8530;49.540;8.576;2024-02-04T05:53:03;1.40;;;1.30;;
16826;SDS011;8530;49.540;8.576;2024-02-04T05:55:31;1.50;;;1.40;;
16826;SDS011;8530;49.540;8.576;2024-02-04T05:57:58;1.50;;;1.30;;
16826;SDS011;8530;49.540;8.576;2024-02-04T06:00:24;1.47;;;1.37;;
16826;SDS011;8530;49.540;8.576;2024-02-04T06:02:52;2.00;;;1.80;;
16826;SDS011;8530;49.540;8.576;2024-02-04T06:05:18;2.87;;;2.10;;
16826;SDS011;8530;49.540;8.576;2024-02-04T06:07:45;3.87;;;2.43;;
16826;SDS011;8530;49.540;8.576;2024-02-04T06:10:12;2.10;;;1.90;;
16826;SDS011;8530;49.540;8.576;2024-02-04T06:12:40;2.17;;;1.97;;
16826;SDS011;8530;49.540;8.576;2024-02-04T06:15:12;1.70;;;1.60;;
16826;SDS011;8530;49.540;8.576;2024-02-04T06:17:39;1.60;;;1.50;;
16826;SDS011;8530;49.540;8.576;2024-02-04T06:20:06;1.57;;;1.30;;
16826;SDS011;8530;49.540;8.576;2024-02-04T06:22:34;1.83;;;1.60;;
16826;SDS011;8530;49.540;8.576;2024-02-04T06:25:01;1.50;;;1.40;;
16826;SDS011;8530;49.540;8.576;2024-02-04T06:27:27;1.50;;;1.40;;
16826;SDS011;8530;49.540;8.576;2024-02-04T06:29:55;1.50;;;1.40;;
16826;SDS011;8530;49.540;8.576;2024-02-04T06:32:22;1.87;;;1.60;;
16826;SDS011;8530;49.540;8.576;2024-02-04T06:34:49;1.50;;;1.40;;
16826;SDS011;8530;49.540;8.576;2024-02-04T06:37:16;1.80;;;1.70;;
16826;SDS011;8530;49.540;8.576;2024-02-04T06:39:43;1.70;;;1.60;;
16826;SDS011;8530;49.540;8.576;2024-02-04T06:42:09;1.80;;;1.70;;
16826;SDS011;8530;49.540;8.576;2024-02-04T06:44:37;1.83;;;1.63;;
16826;SDS011;8530;49.540;8.576;2024-02-04T06:47:05;1.87;;;1.77;;
16826;SDS011;8530;49.540;8.576;2024-02-04T06:49:34;1.70;;;1.60;;
16826;SDS011;8530;49.540;8.576;2024-02-04T06:52:00;1.70;;;1.60;;
16826;SDS011;8530;49.540;8.576;2024-02-04T06:54:27;2.13;;;1.93;;
16826;SDS011;8530;49.540;8.576;2024-02-04T06:56:54;2.20;;;2.00;;
16826;SDS011;8530;49.540;8.576;2024-02-04T06:59:20;2.43;;;2.00;;
16826;SDS011;8530;49.540;8.576;2024-02-04T07:01:47;3.50;;;1.77;;
16826;SDS011;8530;49.540;8.576;2024-02-04T07:04:15;2.83;;;2.33;;
16826;SDS011;8530;49.540;8.576;2024-02-04T07:06:42;1.83;;;1.60;;
16826;SDS011;8530;49.540;8.576;2024-02-04T07:09:09;3.30;;;2.30;;
16826;SDS011;8530;49.540;8.576;2024-02-04T07:11:36;2.00;;;1.80;;
16826;SDS011;8530;49.540;8.576;2024-02-04T07:14:02;1.90;;;1.77;;
16826;SDS011;8530;49.540;8.576;2024-02-04T07:16:31;1.67;;;1.57;;
16826;SDS011;8530;49.540;8.576;2024-02-04T07:18:57;4.20;;;3.10;;
16826;SDS011;8530;49.540;8.576;2024-02-04T07:21:25;2.37;;;2.10;;
16826;SDS011;8530;49.540;8.576;2024-02-04T07:23:52;1.77;;;1.67;;
16826;SDS011;8530;49.540;8.576;2024-02-04T07:26:19;2.00;;;1.90;;
16826;SDS011;8530;49.540;8.576;2024-02-04T07:28:45;1.80;;;1.70;;
16826;SDS011;8530;49.540;8.576;2024-02-04T07:31:12;4.43;;;2.00;;
16826;SDS011;8530;49.540;8.576;2024-02-04T07:33:39;2.33;;;2.13;;
16826;SDS011;8530;49.540;8.576;2024-02-04T07:36:06;2.13;;;1.97;;
16826;SDS011;8530;49.540;8.576;2024-02-04T07:38:34;1.80;;;1.70;;
16826;SDS011;8530;49.540;8.576;2024-02-04T07:41:01;1.90;;;1.80;;
16826;SDS011;8530;49.540;8.576;2024-02-04T07:43:27;2.03;;;1.93;;
16826;SDS011;8530;49.540;8.576;2024-02-04T07:45:54;1.90;;;1.80;;
16826;SDS011;8530;49.540;8.576;2024-02-04T07:48:21;1.90;;;1.80;;
16826;SDS011;8530;49.540;8.576;2024-02-04T07:50:47;3.00;;;2.50;;
16826;SDS011;8530;49.540;8.576;2024-02-04T07:53:14;2.20;;;2.00;;
16826;SDS011;8530;49.540;8.576;2024-02-04T07:55:42;2.20;;;2.00;;
16826;SDS011;8530;49.540;8.576;2024-02-04T07:58:09;2.50;;;2.30;;
16826;SDS011;8530;49.540;8.576;2024-02-04T08:00:35;2.97;;;2.07;;
16826;SDS011;8530;49.540;8.576;2024-02-04T08:03:02;2.70;;;2.20;;
16826;SDS011;8530;49.540;8.576;2024-02-04T08:05:29;2.43;;;2.23;;
16826;SDS011;8530;49.540;8.576;2024-02-04T08:07:56;2.87;;;2.67;;
16826;SDS011;8530;49.540;8.576;2024-02-04T08:10:23;3.87;;;2.50;;
16826;SDS011;8530;49.540;8.576;2024-02-04T08:12:51;2.60;;;2.40;;
16826;SDS011;8530;49.540;8.576;2024-02-04T08:15:19;2.50;;;2.30;;
16826;SDS011;8530;49.540;8.576;2024-02-04T08:17:45;2.97;;;2.67;;
16826;SDS011;8530;49.540;8.576;2024-02-04T08:20:12;3.23;;;2.70;;
16826;SDS011;8530;49.540;8.576;2024-02-04T08:22:39;2.43;;;2.23;;
16826;SDS011;8530;49.540;8.576;2024-02-04T08:25:06;2.43;;;2.23;;
16826;SDS011;8530;49.540;8.576;2024-02-04T08:27:35;3.67;;;2.37;;
16826;SDS011;8530;49.540;8.576;2024-02-04T08:30:04;3.33;;;2.60;;
16826;SDS011;8530;49.540;8.576;2024-02-04T08:32:31;4.17;;;3.00;;
16826;SDS011;8530;49.540;8.576;2024-02-04T08:34:58;2.80;;;2.60;;
16826;SDS011;8530;49.540;8.576;2024-02-04T08:37:24;2.77;;;2.50;;
16826;SDS011;8530;49.540;8.576;2024-02-04T08:39:51;2.50;;;2.30;;
16826;SDS011;8530;49.540;8.576;2024-02-04T08:42:18;8.80;;;2.90;;
16826;SDS011;8530;49.540;8.576;2024-02-04T08:44:45;2.73;;;2.53;;
16826;SDS011;8530;49.540;8.576;2024-02-04T08:47:13;2.70;;;2.50;;
16826;SDS011;8530;49.540;8.576;2024-02-04T08:49:42;2.90;;;2.40;;
16826;SDS011;8530;49.540;8.576;2024-02-04T08:52:09;2.57;;;2.37;;
16826;SDS011;8530;49.540;8.576;2024-02-04T08:54:36;2.70;;;2.23;;
16826;SDS011;8530;49.540;8.576;2024-02-04T08:57:03;3.87;;;2.67;;
16826;SDS011;8530;49.540;8.576;2024-02-04T08:59:30;2.43;;;2.23;;
16826;SDS011;8530;49.540;8.576;2024-02-04T09:01:56;4.87;;;2.83;;
16826;SDS011;8530;49.540;8.576;2024-02-04T09:04:24;3.50;;;2.87;;
16826;SDS011;8530;49.540;8.576;2024-02-04T09:06:51;3.33;;;3.03;;
16826;SDS011;8530;49.540;8.576;2024-02-04T09:09:18;2.40;;;2.20;;
16826;SDS011;8530;49.540;8.576;2024-02-04T09:11:44;3.57;;;3.00;;
16826;SDS011;8530;49.540;8.576;2024-02-04T09:14:11;2.43;;;2.23;;
16826;SDS011;8530;49.540;8.576;2024-02-04T09:16:38;3.47;;;2.30;;
16826;SDS011;8530;49.540;8.576;2024-02-04T09:19:05;2.57;;;2.37;;
16826;SDS011;8530;49.540;8.576;2024-02-04T09:21:33;2.87;;;2.67;;
16826;SDS011;8530;49.540;8.576;2024-02-04T09:23:59;2.63;;;2.27;;
16826;SDS011;8530;49.540;8.576;2024-02-04T09:26:26;2.50;;;2.30;;
16826;SDS011;8530;49.540;8.576;2024-02-04T09:28:53;4.67;;;2.77;;
16826;SDS011;8530;49.540;8.576;2024-02-04T09:31:20;3.50;;;3.20;;
16826;SDS011;8530;49.540;8.576;2024-02-04T09:33:46;3.40;;;2.37;;
16826;SDS011;8530;49.540;8.576;2024-02-04T09:36:13;2.87;;;2.40;;
16826;SDS011;8530;49.540;8.576;2024-02-04T09:38:42;2.80;;;2.20;;
16826;SDS011;8530;49.540;8.576;2024-02-04T09:41:08;2.23;;;2.03;;
16826;SDS011;8530;49.540;8.576;2024-02-04T09:43:35;2.87;;;2.43;;
16826;SDS011;8530;49.540;8.576;2024-02-04T09:46:03;3.20;;;2.80;;
16826;SDS011;8530;49.540;8.576;2024-02-04T09:48:31;4.13;;;3.10;;
16826;SDS011;8530;49.540;8.576;2024-02-04T09:50:59;2.80;;;2.50;;
16826;SDS011;8530;49.540;8.576;2024-02-04T09:53:28;3.63;;;2.87;;
16826;SDS011;8530;49.540;8.576;2024-02-04T09:55:59;2.40;;;2.20;;
16826;SDS011;8530;49.540;8.576;2024-02-04T09:58:28;3.73;;;2.07;;
16826;SDS011;8530;49.540;8.576;2024-02-04T10:00:55;2.43;;;2.23;;
16826;SDS011;8530;49.540;8.576;2024-02-04T10:03:22;3.87;;;2.60;;
16826;SDS011;8530;49.540;8.576;2024-02-04T10:05:49;2.63;;;2.13;;
16826;SDS011;8530;49.540;8.576;2024-02-04T10:08:15;3.23;;;1.97;;
16826;SDS011;8530;49.540;8.576;2024-02-04T10:10:42;2.53;;;2.33;;
16826;SDS011;8530;49.540;8.576;2024-02-04T10:13:11;2.03;;;1.83;;
16826;SDS011;8530;49.540;8.576;2024-02-04T10:15:37;2.53;;;2.33;;
16826;SDS011;8530;49.540;8.576;2024-02-04T10:18:05;2.83;;;2.47;;
16826;SDS011;8530;49.540;8.576;2024-02-04T10:20:32;3.00;;;2.40;;
16826;SDS011;8530;49.540;8.576;2024-02-04T10:22:59;2.93;;;2.37;;
16826;SDS011;8530;49.540;8.576;2024-02-04T10:25:26;2.30;;;2.10;;
16826;SDS011;8530;49.540;8.576;2024-02-04T10:27:53;3.17;;;2.53;;
16826;SDS011;8530;49.540;8.576;2024-02-04T10:30:21;2.77;;;2.50;;
16826;SDS011;8530;49.540;8.576;2024-02-04T10:32:50;2.20;;;2.00;;
16826;SDS011;8530;49.540;8.576;2024-02-04T10:35:17;2.60;;;2.33;;
16826;SDS011;8530;49.540;8.576;2024-02-04T10:37:44;2.50;;;2.30;;
16826;SDS011;8530;49.540;8.576;2024-02-04T10:40:11;2.73;;;2.00;;
16826;SDS011;8530;49.540;8.576;2024-02-04T10:42:38;1.60;;;1.50;;
16826;SDS011;8530;49.540;8.576;2024-02-04T10:45:07;1.50;;;1.40;;
16826;SDS011;8530;49.540;8.576;2024-02-04T10:47:38;1.40;;;1.30;;
16826;SDS011;8530;49.540;8.576;2024-02-04T10:50:05;1.70;;;1.60;;
16826;SDS011;8530;49.540;8.576;2024-02-04T10:52:35;2.37;;;1.70;;
16826;SDS011;8530;49.540;8.576;2024-02-04T10:55:05;2.70;;;1.77;;
16826;SDS011;8530;49.540;8.576;2024-02-04T10:57:34;3.17;;;2.23;;
16826;SDS011;8530;49.540;8.576;2024-02-04T11:00:01;2.77;;;1.87;;
16826;SDS011;8530;49.540;8.576;2024-02-04T11:02:29;1.80;;;1.60;;
16826;SDS011;8530;49.540;8.576;2024-02-04T11:05:01;1.70;;;1.60;;
16826;SDS011;8530;49.540;8.576;2024-02-04T11:07:29;2.97;;;1.50;;
16826;SDS011;8530;49.540;8.576;2024-02-04T11:09:58;1.60;;;1.40;;
16826;SDS011;8530;49.540;8.576;2024-02-04T11:12:25;1.30;;;1.20;;
16826;SDS011;8530;49.540;8.576;2024-02-04T11:14:55;2.77;;;1.90;;
16826;SDS011;8530;49.540;8.576;2024-02-04T11:17:33;2.80;;;1.50;;
16826;SDS011;8530;49.540;8.576;2024-02-04T11:20:26;1.70;;;1.47;;
16826;SDS011;8530;49.540;8.576;2024-02-04T11:23:10;1.27;;;1.17;;
16826;SDS011;8530;49.540;8.576;2024-02-04T11:25:49;1.90;;;1.70;;
16826;SDS011;8530;49.540;8.576;2024-02-04T11:28:18;6.33;;;2.47;;
16826;SDS011;8530;49.540;8.576;2024-02-04T11:30:47;1.60;;;1.50;;
16826;SDS011;8530;49.540;8.576;2024-02-04T11:33:17;1.60;;;1.50;;
16826;SDS011;8530;49.540;8.576;2024-02-04T11:35:46;2.30;;;1.80;;
16826;SDS011;8530;49.540;8.576;2024-02-04T11:38:29;4.20;;;2.00;;
16826;SDS011;8530;49.540;8.576;2024-02-04T11:40:56;4.13;;;2.60;;
16826;SDS011;8530;49.540;8.576;2024-02-04T11:43:23;2.43;;;2.13;;
16826;SDS011;8530;49.540;8.576;2024-02-04T11:45:51;5.13;;;2.47;;
16826;SDS011;8530;49.540;8.576;2024-02-04T11:48:19;2.40;;;1.47;;
16826;SDS011;8530;49.540;8.576;2024-02-04T11:50:53;1.60;;;1.50;;
16826;SDS011;8530;49.540;8.576;2024-02-04T11:53:22;1.53;;;1.43;;
16826;SDS011;8530;49.540;8.576;2024-02-04T11:55:52;3.23;;;1.90;;
16826;SDS011;8530;49.540;8.576;2024-02-04T11:58:19;3.27;;;2.37;;
16826;SDS011;8530;49.540;8.576;2024-02-04T12:00:46;22.03;;;9.37;;
16826;SDS011;8530;49.540;8.576;2024-02-04T12:03:14;10.63;;;4.27;;
16826;SDS011;8530;49.540;8.576;2024-02-04T12:05:41;2.80;;;2.33;;
16826;SDS011;8530;49.540;8.576;2024-02-04T12:08:11;2.07;;;1.80;;
16826;SDS011;8530;49.540;8.576;2024-02-04T12:10:38;1.90;;;1.40;;
16826;SDS011;8530;49.540;8.576;2024-02-04T12:13:06;1.63;;;1.40;;
16826;SDS011;8530;49.540;8.576;2024-02-04T12:15:33;2.03;;;1.60;;
16826;SDS011;8530;49.540;8.576;2024-02-04T12:18:06;2.83;;;1.70;;
16826;SDS011;8530;49.540;8.576;2024-02-04T12:20:34;1.57;;;1.47;;
16826;SDS011;8530;49.540;8.576;2024-02-04T12:23:02;2.17;;;1.60;;
16826;SDS011;8530;49.540;8.576;2024-02-04T12:25:30;1.17;;;1.07;;
16826;SDS011;8530;49.540;8.576;2024-02-04T12:27:57;1.50;;;1.40;;
16826;SDS011;8530;49.540;8.576;2024-02-04T12:30:24;1.50;;;1.40;;
16826;SDS011;8530;49.540;8.576;2024-02-04T12:32:55;1.40;;;1.30;;
16826;SDS011;8530;49.540;8.576;2024-02-04T12:35:22;2.70;;;2.07;;
16826;SDS011;8530;49.540;8.576;2024-02-04T12:37:50;1.77;;;1.63;;
16826;SDS011;8530;49.540;8.576;2024-02-04T12:40:20;1.93;;;1.73;;
16826;SDS011;8530;49.540;8.576;2024-02-04T12:42:52;1.73;;;1.60;;
16826;SDS011;8530;49.540;8.576;2024-02-04T12:45:21;2.00;;;1.30;;
16826;SDS011;8530;49.540;8.576;2024-02-04T12:47:48;1.30;;;1.17;;
16826;SDS011;8530;49.540;8.576;2024-02-04T12:50:16;1.20;;;1.10;;
16826;SDS011;8530;49.540;8.576;2024-02-04T12:52:44;1.30;;;1.20;;
16826;SDS011;8530;49.540;8.576;2024-02-04T12:55:19;1.20;;;1.10;;
16826;SDS011;8530;49.540;8.576;2024-02-04T12:57:46;2.23;;;1.90;;
16826;SDS011;8530;49.540;8.576;2024-02-04T13:00:17;1.97;;;1.77;;
16826;SDS011;8530;49.540;8.576;2024-02-04T13:02:44;3.27;;;2.20;;
16826;SDS011;8530;49.540;8.576;2024-02-04T13:05:21;3.70;;;2.50;;
16826;SDS011;8530;49.540;8.576;2024-02-04T13:07:50;2.17;;;1.83;;
16826;SDS011;8530;49.540;8.576;2024-02-04T13:10:20;2.00;;;1.70;;
16826;SDS011;8530;49.540;8.576;2024-02-04T13:12:57;1.90;;;1.80;;
16826;SDS011;8530;49.540;8.576;2024-02-04T13:15:26;1.50;;;1.40;;
16826;SDS011;8530;49.540;8.576;2024-02-04T13:17:53;1.90;;;1.53;;
16826;SDS011;8530;49.540;8.576;2024-02-04T13:20:20;1.70;;;1.40;;
16826;SDS011;8530;49.540;8.576;2024-02-04T13:22:47;2.27;;;1.70;;
16826;SDS011;8530;49.540;8.576;2024-02-04T13:25:14;1.83;;;1.73;;
16826;SDS011;8530;49.540;8.576;2024-02-04T13:27:40;3.07;;;1.93;;
16826;SDS011;8530;49.540;8.576;2024-02-04T13:30:08;1.70;;;1.60;;
16826;SDS011;8530;49.540;8.576;2024-02-04T13:32:38;2.30;;;2.00;;
16826;SDS011;8530;49.540;8.576;2024-02-04T13:35:05;2.97;;;1.60;;
16826;SDS011;8530;49.540;8.576;2024-02-04T13:37:33;2.73;;;1.90;;
16826;SDS011;8530;49.540;8.576;2024-02-04T13:40:01;1.60;;;1.50;;
16826;SDS011;8530;49.540;8.576;2024-02-04T13:42:28;2.23;;;1.67;;
16826;SDS011;8530;49.540;8.576;2024-02-04T13:44:55;2.40;;;1.93;;
16826;SDS011;8530;49.540;8.576;2024-02-04T13:47:22;1.73;;;1.63;;
16826;SDS011;8530;49.540;8.576;2024-02-04T13:49:50;2.17;;;1.97;;
16826;SDS011;8530;49.540;8.576;2024-02-04T13:52:16;2.17;;;1.97;;
16826;SDS011;8530;49.540;8.576;2024-02-04T13:54:43;2.30;;;2.10;;
16826;SDS011;8530;49.540;8.576;2024-02-04T13:57:10;1.97;;;1.77;;
16826;SDS011;8530;49.540;8.576;2024-02-04T13:59:37;1.60;;;1.50;;
16826;SDS011;8530;49.540;8.576;2024-02-04T14:02:03;1.70;;;1.60;;
16826;SDS011;8530;49.540;8.576;2024-02-04T14:04:33;1.70;;;1.60;;
16826;SDS011;8530;49.540;8.576;2024-02-04T14:07:01;1.90;;;1.80;;
16826;SDS011;8530;49.540;8.576;2024-02-04T14:09:29;6.77;;;1.80;;
16826;SDS011;8530;49.540;8.576;2024-02-04T14:11:56;2.40;;;2.00;;
16826;SDS011;8530;49.540;8.576;2024-02-04T14:14:23;2.10;;;1.90;;
16826;SDS011;8530;49.540;8.576;2024-02-04T14:16:50;3.27;;;2.00;;
16826;SDS011;8530;49.540;8.576;2024-02-04T14:19:17;2.00;;;1.80;;
16826;SDS011;8530;49.540;8.576;2024-02-04T14:21:43;2.27;;;2.07;;
16826;SDS011;8530;49.540;8.576;2024-02-04T14:24:12;2.00;;;1.90;;
16826;SDS011;8530;49.540;8.576;2024-02-04T14:26:38;2.00;;;1.80;;
16826;SDS011;8530;49.540;8.576;2024-02-04T14:29:06;2.67;;;1.90;;
16826;SDS011;8530;49.540;8.576;2024-02-04T14:31:33;2.90;;;1.87;;
16826;SDS011;8530;49.540;8.576;2024-02-04T14:34:00;2.27;;;1.63;;
16826;SDS011;8530;49.540;8.576;2024-02-04T14:36:27;1.70;;;1.60;;
16826;SDS011;8530;49.540;8.576;2024-02-04T14:38:55;1.87;;;1.77;;
16826;SDS011;8530;49.540;8.576;2024-02-04T14:41:23;1.50;;;1.40;;
16826;SDS011;8530;49.540;8.576;2024-02-04T14:43:50;2.70;;;1.70;;
16826;SDS011;8530;49.540;8.576;2024-02-04T14:46:17;1.87;;;1.67;;
16826;SDS011;8530;49.540;8.576;2024-02-04T14:48:43;2.27;;;1.67;;
16826;SDS011;8530;49.540;8.576;2024-02-04T14:51:10;2.10;;;1.73;;
16826;SDS011;8530;49.540;8.576;2024-02-04T14:53:37;2.80;;;1.87;;
16826;SDS011;8530;49.540;8.576;2024-02-04T14:56:03;2.07;;;1.87;;
16826;SDS011;8530;49.540;8.576;2024-02-04T14:58:32;3.93;;;2.07;;
16826;SDS011;8530;49.540;8.576;2024-02-04T15:00:59;2.33;;;1.87;;
16826;SDS011;8530;49.540;8.576;2024-02-04T15:03:26;4.03;;;2.40;;
16826;SDS011;8530;49.540;8.576;2024-02-04T15:05:53;4.47;;;3.57;;
16826;SDS011;8530;49.540;8.576;2024-02-04T15:08:19;2.10;;;1.90;;